Time;durP1;ratioP1;P1;durP2;ratioP2;P2;SDS_P1;SDS_P2;PMS_P1;PMS_P2;Temp;Humidity;BMP_temperature;BMP_pressure;BME280_temperature;BME280_humidity;BME280_pressure;Samples;Min_cycle;Max_cycle;Signal;HPM_P1;HPM_P2
2024/03/11 00:00:43;;;;;;;12.20;4.10;;;;;;;-2.08;52.45;100248.15;107265;1260;60125;-37
2024/03/11 00:03:12;;;;;;;8.30;3.80;;;;;;;-2.09;52.54;100249.68;107278;1254;60093;-37
2024/03/11 00:05:40;;;;;;;11.30;4.30;;;;;;;-2.13;52.74;100248.52;105777;1257;1003419;-37
2024/03/11 00:08:16;;;;;;;8.00;4.00;;;;;;;-2.15;52.74;100247.29;107277;1257;67563;-37
2024/03/11 00:10:45;;;;;;;9.20;3.70;;;;;;;-2.18;52.91;100251.69;106543;1257;1003448;-37
2024/03/11 00:13:17;;;;;;;9.60;3.90;;;;;;;-2.20;52.77;100255.98;107230;1257;60091;-37
2024/03/11 00:15:45;;;;;;;7.70;3.70;;;;;;;-2.22;53.03;100260.84;107275;1257;60063;-37
2024/03/11 00:18:13;;;;;;;6.00;3.40;;;;;;;-2.23;53.03;100262.04;106595;1260;1003248;-38
2024/03/11 00:20:46;;;;;;;7.70;3.60;;;;;;;-2.25;53.19;100263.06;107248;1256;67577;-37
2024/03/11 00:23:14;;;;;;;7.20;3.60;;;;;;;-2.26;53.07;100263.09;107279;1254;72688;-37
2024/03/11 00:25:43;;;;;;;7.50;3.50;;;;;;;-2.28;53.25;100267.70;107172;1257;60062;-38
2024/03/11 00:28:11;;;;;;;6.80;4.10;;;;;;;-2.30;53.48;100270.14;107213;1257;59997;-38
2024/03/11 00:30:39;;;;;;;8.20;3.40;;;;;;;-2.32;53.54;100276.52;107240;1257;73044;-38
2024/03/11 00:33:09;;;;;;;6.70;3.40;;;;;;;-2.39;53.54;100268.93;107300;1257;67629;-38
2024/03/11 00:35:38;;;;;;;7.40;3.50;;;;;;;-2.37;53.64;100280.15;107208;1260;72682;-38
2024/03/11 00:38:07;;;;;;;10.80;3.60;;;;;;;-2.38;53.83;100276.97;107177;1256;60148;-38
2024/03/11 00:40:36;;;;;;;7.90;3.20;;;;;;;-2.38;53.84;100282.22;107241;1257;60018;-37
2024/03/11 00:43:05;;;;;;;7.90;3.60;;;;;;;-2.40;53.96;100283.04;107275;1257;73016;-37
2024/03/11 00:45:33;;;;;;;6.90;3.20;;;;;;;-2.43;54.04;100283.61;106551;1257;1002651;-37
2024/03/11 00:48:02;;;;;;;9.10;3.80;;;;;;;-2.43;54.10;100284.66;106464;1257;1002953;-37
2024/03/11 00:50:30;;;;;;;8.40;3.70;;;;;;;-2.45;54.15;100291.01;107307;1256;60054;-37
2024/03/11 00:52:57;;;;;;;8.20;3.80;;;;;;;-2.48;54.13;100292.80;107264;1256;59378;-37
2024/03/11 00:55:25;;;;;;;8.10;4.10;;;;;;;-2.50;54.10;100285.70;107256;1256;73029;-37
2024/03/11 00:57:52;;;;;;;9.00;4.40;;;;;;;-2.53;54.22;100283.73;107266;1256;66428;-37
2024/03/11 01:00:22;;;;;;;8.60;4.00;;;;;;;-2.55;54.38;100284.17;107255;1257;72505;-37
2024/03/11 01:02:52;;;;;;;;;;;;;;;-2.57;54.34;100290.27;107197;1256;60068;-37
2024/03/11 01:05:21;;;;;;;;;;;;;;;-2.59;54.36;100286.89;107088;1257;60467;-37
2024/03/11 01:07:50;;;;;;;9.00;3.90;;;;;;;-2.63;54.53;100282.08;107116;1257;73176;-38
2024/03/11 01:10:17;;;;;;;10.10;3.70;;;;;;;-2.67;54.68;100285.54;107277;1260;66297;-37
2024/03/11 01:12:46;;;;;;;9.00;3.90;;;;;;;-2.69;54.51;100290.88;107257;1257;72670;-37
2024/03/11 01:15:13;;;;;;;7.40;3.50;;;;;;;-2.71;54.65;100293.04;107357;1257;60030;-37
2024/03/11 01:17:41;;;;;;;8.50;3.60;;;;;;;-2.72;54.82;100289.90;107239;1256;59496;-37
2024/03/11 01:20:10;;;;;;;7.50;3.30;;;;;;;-2.74;54.93;100288.12;107169;1257;73031;-37
2024/03/11 01:22:42;;;;;;;;;;;;;;;-2.77;54.98;100286.09;107418;1257;66641;-37
2024/03/11 01:25:10;;;;;;;8.00;3.40;;;;;;;-2.79;55.33;100288.42;105764;1257;1003665;-37
2024/03/11 01:27:41;;;;;;;7.10;3.40;;;;;;;-2.82;55.11;100287.55;107292;1256;60047;-37
2024/03/11 01:30:10;;;;;;;10.70;3.40;;;;;;;-2.84;55.34;100300.26;107360;1260;60024;-37
2024/03/11 01:32:44;;;;;;;5.70;2.90;;;;;;;-2.86;55.41;100301.52;107266;1258;71771;-37
2024/03/11 01:35:13;;;;;;;6.10;3.10;;;;;;;-2.87;55.54;100302.52;107261;1257;67949;-37
2024/03/11 01:37:41;;;;;;;7.40;3.20;;;;;;;-2.89;55.96;100303.33;107280;1257;71054;-37
2024/03/11 01:40:11;;;;;;;9.60;3.40;;;;;;;-2.89;56.03;100310.07;106601;1256;1003654;-37
2024/03/11 01:42:38;;;;;;;6.00;3.20;;;;;;;-2.89;55.80;100313.73;107163;1256;60132;-37
2024/03/11 01:45:07;;;;;;;6.60;3.40;;;;;;;-2.89;55.62;100317.08;107269;1257;73166;-37
2024/03/11 01:47:37;;;;;;;6.30;3.10;;;;;;;-2.90;56.03;100317.70;106440;1257;1003523;-37
2024/03/11 01:50:08;;;;;;;5.90;3.40;;;;;;;-2.90;56.28;100320.35;107351;1257;72703;-37
2024/03/11 01:53:03;;;;;;;7.50;3.30;;;;;;;-2.91;56.38;100323.02;107159;1257;60328;-37
2024/03/11 01:55:32;;;;;;;6.20;3.50;;;;;;;-2.88;56.49;100331.63;107231;1256;60368;-37
2024/03/11 01:58:03;;;;;;;6.10;3.10;;;;;;;-2.94;56.43;100329.23;107434;1257;73868;-37
2024/03/11 02:00:30;;;;;;;5.50;2.70;;;;;;;-2.90;56.22;100334.84;107350;1256;67569;-37
2024/03/11 02:02:58;;;;;;;6.00;2.60;;;;;;;-2.92;56.66;100327.14;107262;1256;72354;-37
2024/03/11 02:05:26;;;;;;;6.90;3.30;;;;;;;-2.94;56.79;100324.98;107297;1256;60428;-37
2024/03/11 02:07:57;;;;;;;4.00;2.10;;;;;;;-2.93;56.68;100326.89;107402;1257;60377;-37
2024/03/11 02:10:26;;;;;;;6.70;3.40;;;;;;;-2.96;56.80;100327.56;107261;1257;73886;-37
2024/03/11 02:12:56;;;;;;;5.80;3.10;;;;;;;-3.01;56.60;100324.10;107352;1257;67595;-37
2024/03/11 02:15:23;;;;;;;11.10;3.70;;;;;;;-3.05;56.91;100329.27;107402;1257;72649;-37
2024/03/11 02:17:51;;;;;;;9.40;3.40;;;;;;;-3.08;57.06;100333.94;107287;1256;60322;-37
2024/03/11 02:20:19;;;;;;;8.60;3.80;;;;;;;-3.10;57.24;100335.45;107356;1256;60515;-37
2024/03/11 02:22:54;;;;;;;8.70;4.00;;;;;;;-3.13;57.31;100333.08;107330;1257;73848;-37
2024/03/11 02:25:30;;;;;;;9.30;4.10;;;;;;;-3.13;57.22;100332.13;107232;1257;66421;-37
2024/03/11 02:27:59;;;;;;;9.70;4.00;;;;;;;-3.14;57.37;100329.48;107219;1257;72319;-38
2024/03/11 02:30:26;;;;;;;8.80;3.80;;;;;;;-3.15;57.42;100330.13;107226;1260;59578;-38
2024/03/11 02:32:54;;;;;;;8.80;4.30;;;;;;;-3.16;57.79;100329.33;107349;1257;60431;-38
2024/03/11 02:35:22;;;;;;;7.40;3.80;;;;;;;-3.18;57.59;100332.00;107210;1257;73842;-38
2024/03/11 02:37:50;;;;;;;7.40;3.80;;;;;;;-3.18;57.89;100332.53;107335;1256;67541;-37
2024/03/11 02:40:18;;;;;;;8.10;3.90;;;;;;;-3.18;57.92;100338.95;107248;1256;72687;-37
2024/03/11 02:42:46;;;;;;;7.90;3.80;;;;;;;-3.19;57.95;100340.90;107370;1257;60456;-37
2024/03/11 02:45:15;;;;;;;9.20;4.60;;;;;;;-3.21;58.00;100342.70;107266;1256;60421;-37
2024/03/11 02:47:43;;;;;;;7.70;4.00;;;;;;;-3.20;58.21;100340.88;107344;1256;73281;-37
2024/03/11 02:50:13;;;;;;;7.40;3.80;;;;;;;-3.22;58.23;100342.29;107267;1257;68003;-37
2024/03/11 02:52:41;;;;;;;6.80;3.90;;;;;;;-3.26;58.51;100346.06;107280;1257;72435;-37
2024/03/11 02:55:14;;;;;;;9.00;4.50;;;;;;;-3.29;58.69;100348.83;107269;1256;60310;-37
2024/03/11 02:57:43;;;;;;;9.20;4.40;;;;;;;-3.31;58.90;100348.58;107283;1256;60427;-37
2024/03/11 03:00:11;;;;;;;9.60;4.00;;;;;;;-3.34;59.20;100348.42;107382;1257;72634;-37
2024/03/11 03:02:39;;;;;;;8.40;4.20;;;;;;;-3.27;59.09;100351.77;107355;1257;66343;-37
2024/03/11 03:05:08;;;;;;;10.20;4.50;;;;;;;-3.20;59.17;100352.14;106558;1257;1003229;-37
2024/03/11 03:07:36;;;;;;;10.20;5.00;;;;;;;-3.20;59.28;100347.89;107278;1257;60469;-37
2024/03/11 03:10:04;;;;;;;8.40;4.70;;;;;;;-3.20;59.59;100348.75;107285;1260;61260;-37
2024/03/11 03:12:32;;;;;;;10.20;4.70;;;;;;;-3.20;59.27;100351.46;107278;1257;72552;-37
2024/03/11 03:15:00;;;;;;;8.80;5.10;;;;;;;-3.21;59.52;100344.75;107225;1257;67558;-37
2024/03/11 03:17:28;;;;;;;7.60;4.80;;;;;;;-3.25;59.88;100346.27;107366;1260;72633;-37
2024/03/11 03:19:56;;;;;;;8.90;4.80;;;;;;;-3.28;59.99;100348.26;107304;1257;60385;-37
2024/03/11 03:22:23;;;;;;;8.20;4.50;;;;;;;-3.32;60.13;100349.04;107258;1257;60312;-37
2024/03/11 03:24:51;;;;;;;10.10;4.60;;;;;;;-3.36;60.25;100351.02;107354;1256;73957;-37
2024/03/11 03:27:18;;;;;;;9.50;4.50;;;;;;;-3.41;60.56;100348.34;107252;1259;66670;-37
2024/03/11 03:29:48;;;;;;;10.60;4.00;;;;;;;-3.45;60.77;100348.61;107323;1256;71367;-37
2024/03/11 03:32:19;;;;;;;7.90;3.70;;;;;;;-3.41;61.12;100349.55;107284;1257;61666;-37
2024/03/11 03:34:48;;;;;;;9.40;4.00;;;;;;;-3.38;61.09;100345.92;107359;1257;60386;-37
2024/03/11 03:37:16;;;;;;;5.40;2.90;;;;;;;-3.40;61.35;100345.82;107382;1257;73853;-37
2024/03/11 03:39:43;;;;;;;7.40;3.60;;;;;;;-3.41;61.48;100349.60;107258;1254;67299;-37
2024/03/11 03:42:10;;;;;;;7.00;3.10;;;;;;;-3.43;61.36;100346.98;107351;1259;72676;-38
2024/03/11 03:44:38;;;;;;;5.80;2.90;;;;;;;-3.44;61.32;100349.31;106618;1256;1002862;-38
2024/03/11 03:47:06;;;;;;;8.00;3.40;;;;;;;-3.47;61.48;100351.00;106468;1254;1002620;-37
2024/03/11 03:49:33;;;;;;;5.50;3.00;;;;;;;-3.49;61.79;100352.34;107169;1255;73871;-38
2024/03/11 03:52:01;;;;;;;6.00;2.70;;;;;;;-3.52;61.80;100350.98;107245;1254;66243;-38
2024/03/11 03:54:29;;;;;;;8.00;3.30;;;;;;;-3.47;61.95;100357.10;107177;1257;71384;-38
2024/03/11 03:56:56;;;;;;;7.40;3.00;;;;;;;-3.44;61.98;100354.46;107289;1257;59583;-38
2024/03/11 03:59:25;;;;;;;6.30;3.10;;;;;;;-3.46;62.22;100352.13;107122;1254;60448;-38
2024/03/11 04:01:54;;;;;;;;;;;;;;;-3.47;62.41;100356.35;106508;1255;1003044;-38
2024/03/11 04:04:21;;;;;;;8.00;3.30;;;;;;;-3.49;62.32;100354.79;107261;1256;67595;-37
2024/03/11 04:06:49;;;;;;;6.80;3.00;;;;;;;-3.54;62.59;100352.70;106464;1256;1003352;-38
2024/03/11 04:09:16;;;;;;;7.20;3.70;;;;;;;-3.58;62.67;100353.44;107297;1254;60462;-38
2024/03/11 04:11:45;;;;;;;8.40;3.60;;;;;;;-3.61;63.01;100359.64;107267;1254;59231;-37
2024/03/11 04:14:12;;;;;;;6.90;3.30;;;;;;;-3.57;63.41;100362.89;107330;1257;73856;-38
2024/03/11 04:16:42;;;;;;;6.40;3.20;;;;;;;-3.55;62.92;100366.84;107352;1254;67874;-38
2024/03/11 04:19:09;;;;;;;6.60;3.50;;;;;;;-3.58;63.32;100367.44;107334;1257;71795;-38
2024/03/11 04:21:37;;;;;;;7.00;3.40;;;;;;;-3.61;63.26;100370.52;107335;1254;60411;-38
2024/03/11 04:24:05;;;;;;;10.10;3.50;;;;;;;-3.63;63.56;100373.13;107370;1254;60418;-38
2024/03/11 04:26:33;;;;;;;6.40;3.20;;;;;;;-3.64;63.55;100376.89;106533;1254;1003394;-38
2024/03/11 04:29:05;;;;;;;7.50;3.60;;;;;;;-3.64;63.71;100380.39;107283;1254;66260;-38
2024/03/11 04:31:33;;;;;;;8.30;3.60;;;;;;;-3.55;63.65;100383.17;107351;1257;72810;-37
2024/03/11 04:34:00;;;;;;;8.60;3.40;;;;;;;-3.50;63.72;100382.34;107323;1257;60524;-37
2024/03/11 04:36:29;;;;;;;6.00;3.50;;;;;;;-3.51;63.85;100381.59;107376;1254;60386;-37
2024/03/11 04:38:57;;;;;;;5.80;3.60;;;;;;;-3.51;63.81;100388.64;107284;1257;72634;-37
2024/03/11 04:41:25;;;;;;;7.60;3.70;;;;;;;-3.52;63.81;100390.89;107260;1254;66410;-36
2024/03/11 04:43:52;;;;;;;6.70;4.00;;;;;;;-3.54;63.93;100393.27;107338;1256;72664;-36
2024/03/11 04:46:20;;;;;;;6.10;3.90;;;;;;;-3.57;63.98;100389.66;107283;1260;60308;-36
2024/03/11 04:48:47;;;;;;;8.40;4.00;;;;;;;-3.58;64.45;100394.67;107271;1254;60389;-36
2024/03/11 04:51:15;;;;;;;11.00;4.10;;;;;;;-3.50;64.44;100397.29;107269;1254;73866;-36
2024/03/11 04:53:44;;;;;;;8.10;3.90;;;;;;;-3.48;64.45;100399.96;107201;1260;67616;-38
2024/03/11 04:56:11;;;;;;;9.60;3.50;;;;;;;-3.48;64.71;100401.92;107162;1257;70889;-37
2024/03/11 04:58:39;;;;;;;10.60;3.90;;;;;;;-3.49;64.80;100401.39;107171;1257;60509;-37
2024/03/11 05:01:07;;;;;;;9.90;3.90;;;;;;;-3.49;64.81;100399.12;107195;1254;60677;-36
2024/03/11 05:03:35;;;;;;;7.90;4.20;;;;;;;-3.49;64.93;100400.06;107247;1254;73912;-37
2024/03/11 05:06:03;;;;;;;6.40;3.40;;;;;;;-3.48;65.07;100405.96;107262;1257;67589;-36
2024/03/11 05:08:30;;;;;;;6.50;3.50;;;;;;;-3.37;64.94;100412.88;107275;1254;70467;-37
2024/03/11 05:10:58;;;;;;;7.60;3.90;;;;;;;-3.26;64.98;100411.34;107291;1257;60446;-37
2024/03/11 05:13:26;;;;;;;7.60;3.60;;;;;;;-3.23;64.78;100417.70;107251;1257;60319;-36
2024/03/11 05:15:53;;;;;;;10.80;4.50;;;;;;;-3.21;64.86;100416.08;107244;1254;73883;-36
2024/03/11 05:18:22;;;;;;;7.60;3.70;;;;;;;-3.22;64.57;100407.63;107254;1257;67612;-36
2024/03/11 05:20:50;;;;;;;11.10;5.00;;;;;;;-3.15;64.72;100414.79;107265;1254;72796;-36
2024/03/11 05:23:18;;;;;;;8.80;4.20;;;;;;;-3.12;64.41;100418.64;107260;1256;60177;-36
2024/03/11 05:25:45;;;;;;;7.80;3.80;;;;;;;-3.11;64.60;100418.67;106535;1254;1003393;-36
2024/03/11 05:28:13;;;;;;;12.30;3.90;;;;;;;-3.00;64.49;100414.95;107271;1255;73822;-36
2024/03/11 05:30:40;;;;;;;10.50;4.10;;;;;;;-2.93;64.38;100411.33;107264;1256;67630;-37
2024/03/11 05:33:08;;;;;;;9.50;4.30;;;;;;;-2.90;64.37;100416.71;107231;1256;73267;-37
2024/03/11 05:35:36;;;;;;;13.60;5.70;;;;;;;-2.87;64.31;100423.98;106552;1257;1003107;-37
2024/03/11 05:38:04;;;;;;;12.40;4.80;;;;;;;-2.83;64.31;100419.42;107250;1257;60437;-37
2024/03/11 05:40:32;;;;;;;13.80;4.40;;;;;;;-2.81;64.11;100421.57;107149;1256;73916;-37
2024/03/11 05:43:00;;;;;;;11.80;4.70;;;;;;;-2.80;64.23;100429.53;107167;1256;67560;-37
2024/03/11 05:45:27;;;;;;;12.10;4.20;;;;;;;-2.75;64.04;100435.66;107158;1257;71404;-36
2024/03/11 05:47:59;;;;;;;13.10;4.40;;;;;;;-2.64;63.65;100436.64;107162;1257;60351;-37
2024/03/11 05:50:27;;;;;;;10.20;4.70;;;;;;;-2.57;63.43;100445.13;107192;1257;60332;-37
2024/03/11 05:52:55;;;;;;;11.10;4.60;;;;;;;-2.54;63.08;100449.46;106456;1255;1002867;-37
2024/03/11 05:55:26;;;;;;;10.20;4.40;;;;;;;-2.53;62.99;100450.22;107235;1257;67611;-37
2024/03/11 05:57:55;;;;;;;12.40;4.60;;;;;;;-2.47;62.98;100455.23;106552;1257;1003512;-36
2024/03/11 06:00:22;;;;;;;8.30;3.30;;;;;;;-2.41;62.86;100459.18;107337;1257;60342;-38
2024/03/11 06:02:51;;;;;;;8.20;4.60;;;;;;;-2.35;62.72;100458.63;107280;1257;60629;-37
2024/03/11 06:05:19;;;;;;;7.20;4.10;;;;;;;-2.28;61.85;100459.67;107281;1254;74003;-37
2024/03/11 06:07:47;;;;;;;12.10;4.20;;;;;;;-2.25;61.70;100461.34;107260;1256;66365;-37
2024/03/11 06:10:15;;;;;;;10.40;4.10;;;;;;;-2.20;61.52;100461.14;106448;1254;1002955;-37
2024/03/11 06:12:43;;;;;;;8.50;3.80;;;;;;;-2.13;60.90;100461.37;107221;1254;60763;-37
2024/03/11 06:15:12;;;;;;;11.90;4.00;;;;;;;-2.08;60.82;100461.42;107301;1254;59267;-37
2024/03/11 06:17:41;;;;;;;7.90;3.20;;;;;;;-1.94;60.38;100460.14;107259;1260;73937;-37
2024/03/11 06:20:13;;;;;;;;;;;;;;;-1.79;59.96;100458.21;107282;1254;67564;-36
2024/03/11 06:22:40;;;;;;;10.60;4.00;;;;;;;-1.71;59.62;100460.10;107242;1260;72712;-36
2024/03/11 06:25:09;;;;;;;9.00;3.60;;;;;;;-1.67;59.04;100463.17;107238;1254;60409;-37
2024/03/11 06:27:37;;;;;;;11.80;3.90;;;;;;;-1.61;58.54;100462.75;107297;1254;60520;-37
2024/03/11 06:30:05;;;;;;;12.80;3.80;;;;;;;-1.56;58.30;100456.31;107183;1254;72572;-37
2024/03/11 06:32:34;;;;;;;10.40;3.60;;;;;;;-1.53;57.39;100456.66;107339;1254;66385;-37
2024/03/11 06:35:05;;;;;;;9.40;4.10;;;;;;;-1.51;56.93;100460.45;106486;1257;1003492;-38
2024/03/11 06:37:34;;;;;;;12.00;4.20;;;;;;;-1.50;56.48;100462.96;107185;1261;60432;-38
2024/03/11 06:40:02;;;;;;;7.90;3.80;;;;;;;-1.49;56.59;100461.30;106541;1254;1002991;-38
2024/03/11 06:42:30;;;;;;;10.20;3.80;;;;;;;-1.45;56.50;100464.44;107231;1254;73870;-38
2024/03/11 06:44:57;;;;;;;9.70;3.50;;;;;;;-1.41;56.46;100468.09;106488;1254;1002911;-37
2024/03/11 06:47:25;;;;;;;8.50;3.80;;;;;;;-1.36;56.02;100469.36;107278;1257;71261;-38
2024/03/11 06:49:53;;;;;;;10.90;4.00;;;;;;;-1.28;56.05;100473.61;107260;1254;60335;-38
2024/03/11 06:52:21;;;;;;;8.70;3.50;;;;;;;-1.22;55.61;100471.27;106525;1254;1002833;-38
2024/03/11 06:54:49;;;;;;;8.20;3.80;;;;;;;-1.18;55.04;100476.51;107257;1255;73857;-38
2024/03/11 06:57:17;;;;;;;12.10;3.90;;;;;;;-1.16;54.69;100475.78;107312;1255;67995;-38
2024/03/11 06:59:45;;;;;;;8.90;3.30;;;;;;;-1.12;54.79;100485.77;107253;1257;72764;-38
2024/03/11 07:02:13;;;;;;;6.90;3.70;;;;;;;-1.08;54.54;100486.23;107199;1260;61158;-37
2024/03/11 07:04:41;;;;;;;8.20;3.60;;;;;;;-1.02;54.24;100485.95;106515;1256;1003328;-38
2024/03/11 07:07:08;;;;;;;7.20;3.50;;;;;;;-0.96;54.40;100491.36;107251;1255;72584;-38
2024/03/11 07:09:36;;;;;;;8.20;3.60;;;;;;;-0.88;54.48;100492.48;107193;1254;66510;-38
2024/03/11 07:12:05;;;;;;;8.60;3.50;;;;;;;-0.78;53.93;100493.13;107256;1257;72711;-38
2024/03/11 07:14:37;;;;;;;7.00;3.30;;;;;;;-0.68;53.91;100494.21;107228;1255;60594;-38
2024/03/11 07:17:05;;;;;;;9.90;3.20;;;;;;;-0.57;53.25;100496.73;107246;1255;60427;-38
2024/03/11 07:19:33;;;;;;;7.00;3.30;;;;;;;-0.48;52.33;100495.43;107270;1254;73990;-38
2024/03/11 07:22:00;;;;;;;5.40;2.80;;;;;;;-0.44;52.06;100500.78;106620;1257;1003652;-38
2024/03/11 07:24:28;;;;;;;10.20;3.30;;;;;;;-0.41;51.95;100500.48;107159;1256;71699;-38
2024/03/11 07:26:55;;;;;;;6.90;3.00;;;;;;;-0.35;51.73;100504.72;107295;1255;60466;-38
2024/03/11 07:29:23;;;;;;;7.30;3.00;;;;;;;-0.24;51.71;100511.21;107346;1254;60415;-37
2024/03/11 07:31:53;;;;;;;9.50;3.20;;;;;;;-0.11;51.51;100511.65;107335;1257;72852;-37
2024/03/11 07:34:21;;;;;;;9.30;3.20;;;;;;;0.02;51.28;100505.45;107338;1254;71458;-37
2024/03/11 07:36:49;;;;;;;11.70;3.10;;;;;;;0.12;50.86;100501.22;107272;1257;71447;-37
2024/03/11 07:39:17;;;;;;;8.30;3.20;;;;;;;0.20;50.80;100504.66;106522;1254;1003403;-38
2024/03/11 07:41:45;;;;;;;6.70;3.30;;;;;;;0.34;50.07;100502.98;107258;1254;62222;-38
2024/03/11 07:44:13;;;;;;;7.80;3.10;;;;;;;0.44;50.41;100502.09;107321;1254;73062;-38
2024/03/11 07:46:41;;;;;;;7.00;3.00;;;;;;;0.57;50.00;100498.05;107247;1254;69822;-38
2024/03/11 07:49:11;;;;;;;8.40;3.00;;;;;;;0.71;49.40;100497.64;107128;1257;72805;-38
2024/03/11 07:51:40;;;;;;;8.80;3.00;;;;;;;0.84;48.58;100501.37;107315;1257;60421;-38
2024/03/11 07:54:11;;;;;;;5.70;2.70;;;;;;;0.97;48.41;100501.91;107303;1254;60418;-38
2024/03/11 07:56:40;;;;;;;5.90;3.10;;;;;;;1.12;47.87;100491.31;106175;1257;1003905;-38
2024/03/11 07:59:07;;;;;;;8.10;2.80;;;;;;;1.25;47.45;100491.08;107256;1254;67917;-38
2024/03/11 08:01:36;;;;;;;4.20;2.20;;;;;;;1.43;46.58;100496.02;107308;1257;73092;-38
2024/03/11 08:04:06;;;;;;;5.40;2.40;;;;;;;1.61;45.64;100491.10;107328;1256;61404;-38
2024/03/11 08:06:35;;;;;;;4.30;2.40;;;;;;;1.78;45.32;100495.16;107318;1256;61599;-38
2024/03/11 08:09:02;;;;;;;4.10;2.40;;;;;;;1.94;45.08;100495.20;107393;1254;71961;-38
2024/03/11 08:11:30;;;;;;;5.00;2.60;;;;;;;2.11;44.59;100492.22;107352;1254;66804;-38
2024/03/11 08:13:58;;;;;;;4.30;2.10;;;;;;;2.30;44.32;100494.05;107340;1254;71801;-38
2024/03/11 08:16:26;;;;;;;5.30;2.70;;;;;;;2.44;43.85;100493.42;107339;1257;60463;-38
2024/03/11 08:18:54;;;;;;;5.20;2.40;;;;;;;2.54;44.02;100498.23;107295;1254;60584;-38
2024/03/11 08:21:23;;;;;;;4.80;2.40;;;;;;;2.66;43.66;100494.87;107285;1255;74260;-38
2024/03/11 08:23:50;;;;;;;6.90;3.40;;;;;;;2.80;43.52;100496.00;107370;1256;67250;-38
2024/03/11 08:26:18;;;;;;;4.60;2.80;;;;;;;2.94;43.36;100502.85;107253;1262;71866;-38
2024/03/11 08:28:46;;;;;;;5.20;2.50;;;;;;;3.05;43.00;100503.55;107300;1256;61382;-38
2024/03/11 08:31:13;;;;;;;6.50;2.70;;;;;;;3.19;42.95;100510.39;107344;1258;60083;-38
2024/03/11 08:33:41;;;;;;;3.70;2.30;;;;;;;3.36;42.70;100510.82;107321;1254;73045;-38
2024/03/11 08:36:09;;;;;;;3.50;2.10;;;;;;;3.55;42.09;100502.41;107304;1254;69834;-38
2024/03/11 08:38:36;;;;;;;3.40;2.40;;;;;;;3.74;41.52;100506.23;107277;1257;73016;-38
2024/03/11 08:41:07;;;;;;;5.70;2.50;;;;;;;3.87;41.00;100507.25;107264;1260;60510;-38
2024/03/11 08:43:35;;;;;;;4.50;2.60;;;;;;;4.02;40.75;100508.84;106483;1254;1003476;-38
2024/03/11 08:46:02;;;;;;;7.10;2.40;;;;;;;4.12;41.11;100508.88;107270;1254;76067;-38
2024/03/11 08:48:30;;;;;;;4.50;2.50;;;;;;;4.25;41.09;100515.45;107286;1254;68415;-38
2024/03/11 08:50:59;;;;;;;4.50;2.20;;;;;;;4.41;39.92;100516.30;107276;1257;75011;-38
2024/03/11 08:53:27;;;;;;;5.80;2.70;;;;;;;4.56;39.41;100511.52;107278;1254;59603;-38
2024/03/11 08:55:56;;;;;;;6.10;2.80;;;;;;;4.70;38.91;100499.81;107344;1254;60321;-38
2024/03/11 08:58:24;;;;;;;5.50;2.40;;;;;;;4.77;38.88;100501.54;107357;1254;76011;-38
2024/03/11 09:00:52;;;;;;;5.20;2.60;;;;;;;4.74;39.06;100503.79;107405;1254;66758;-37
2024/03/11 09:03:20;;;;;;;3.80;2.30;;;;;;;4.76;38.71;100502.08;107296;1254;71506;-37
2024/03/11 09:05:49;;;;;;;7.00;2.70;;;;;;;4.90;38.47;100499.88;107318;1254;60645;-37
2024/03/11 09:08:18;;;;;;;3.90;2.70;;;;;;;5.02;38.50;100495.23;107264;1255;60313;-37
2024/03/11 09:10:45;;;;;;;6.10;2.60;;;;;;;5.15;38.40;100496.92;107291;1254;73019;-37
2024/03/11 09:13:13;;;;;;;3.90;2.40;;;;;;;5.35;38.08;100483.73;107354;1257;68810;-37
2024/03/11 09:15:44;;;;;;;4.30;2.10;;;;;;;5.55;37.30;100479.30;107301;1260;72063;-37
2024/03/11 09:18:13;;;;;;;4.30;2.40;;;;;;;5.73;37.48;100477.33;107309;1258;60424;-37
2024/03/11 09:20:40;;;;;;;4.20;2.90;;;;;;;5.93;37.66;100474.26;107328;1254;60527;-37
2024/03/11 09:23:08;;;;;;;3.90;2.50;;;;;;;6.16;36.75;100465.09;107333;1255;72284;-37
2024/03/11 09:25:36;;;;;;;6.60;2.30;;;;;;;6.44;35.87;100466.23;107211;1258;66470;-37
2024/03/11 09:28:08;;;;;;;4.30;2.50;;;;;;;6.65;34.85;100467.65;107205;1257;73038;-37
2024/03/11 09:30:37;;;;;;;3.70;2.30;;;;;;;6.75;34.73;100462.01;107325;1257;60543;-37
2024/03/11 09:33:08;;;;;;;4.20;2.30;;;;;;;6.76;34.71;100459.07;107294;1260;60316;-37
2024/03/11 09:35:37;;;;;;;3.90;2.50;;;;;;;6.78;34.26;100448.84;107287;1257;76034;-39
2024/03/11 09:38:05;;;;;;;6.50;2.40;;;;;;;6.71;33.97;100452.58;107308;1256;67260;-38
2024/03/11 09:40:33;;;;;;;6.20;2.60;;;;;;;6.65;34.05;100455.41;107315;1258;73029;-38
2024/03/11 09:43:01;;;;;;;4.70;2.80;;;;;;;6.68;34.30;100459.43;107264;1257;60437;-38
2024/03/11 09:45:34;;;;;;;5.30;2.90;;;;;;;6.71;34.33;100459.95;107311;1257;60536;-38
2024/03/11 09:48:04;;;;;;;5.50;3.10;;;;;;;6.81;34.28;100454.79;107318;1257;73026;-38
2024/03/11 09:50:34;;;;;;;4.90;2.70;;;;;;;6.86;33.84;100456.13;107324;1260;66783;-38
2024/03/11 09:53:06;;;;;;;7.40;2.80;;;;;;;6.85;33.60;100462.20;107328;1257;71906;-38
2024/03/11 09:55:35;;;;;;;4.90;2.90;;;;;;;6.89;33.64;100456.21;107130;1257;179903;-38
2024/03/11 09:59:43;;;;;;;4.80;2.80;;;;;;;7.06;33.93;100450.55;104204;1291;600874;-38
2024/03/11 10:02:12;;;;;;;5.60;3.40;;;;;;;7.17;32.97;100452.26;106616;1267;59874;-38
2024/03/11 10:04:39;;;;;;;5.10;2.80;;;;;;;7.19;33.07;100450.80;106646;1266;60138;-38
2024/03/11 10:07:08;;;;;;;4.60;2.80;;;;;;;7.25;33.09;100450.59;106622;1266;72026;-38
2024/03/11 10:09:45;;;;;;;4.80;3.00;;;;;;;7.28;33.14;100446.73;106649;1266;66510;-38
2024/03/11 10:12:15;;;;;;;5.00;2.70;;;;;;;7.22;32.31;100439.83;106469;1270;214767;-39
2024/03/11 10:14:46;;;;;;;8.80;3.00;;;;;;;7.13;32.70;100441.36;106699;1264;61348;-38
2024/03/11 10:17:26;;;;;;;5.40;3.00;;;;;;;7.16;32.67;100439.55;106773;1264;59226;-38
2024/03/11 10:19:56;;;;;;;6.40;3.10;;;;;;;7.19;32.26;100431.60;106723;1264;72577;-38
2024/03/11 10:22:24;;;;;;;5.80;2.80;;;;;;;7.21;31.95;100426.52;106799;1266;67911;-38
2024/03/11 10:24:54;;;;;;;4.80;2.80;;;;;;;7.25;31.87;100428.58;106711;1267;72803;-38
2024/03/11 10:27:43;;;;;;;6.90;2.90;;;;;;;7.34;32.02;100426.01;106780;1267;60197;-38
2024/03/11 10:30:25;;;;;;;6.10;3.00;;;;;;;7.54;32.12;100425.52;106828;1266;60133;-38
2024/03/11 10:32:55;;;;;;;7.30;3.10;;;;;;;7.79;31.20;100419.34;106107;1264;1015744;-38
2024/03/11 10:35:27;;;;;;;6.40;3.20;;;;;;;7.96;30.61;100414.89;106707;1267;67494;-39
2024/03/11 10:38:15;;;;;;;5.50;3.20;;;;;;;7.98;30.94;100418.77;106780;1264;73079;-39
2024/03/11 10:40:45;;;;;;;4.70;3.00;;;;;;;7.95;31.09;100418.00;106757;1264;59688;-38
2024/03/11 10:43:21;;;;;;;11.90;3.20;;;;;;;7.88;29.92;100415.14;106983;1263;62218;-38
2024/03/11 10:45:48;;;;;;;6.80;2.90;;;;;;;7.70;30.01;100413.17;107024;1258;75397;-39
2024/03/11 10:48:16;;;;;;;7.50;3.00;;;;;;;7.60;30.17;100409.90;106998;1260;68171;-38
2024/03/11 10:50:44;;;;;;;8.50;3.30;;;;;;;7.69;30.67;100407.23;107130;1260;71094;-38
2024/03/11 10:53:21;;;;;;;8.90;3.10;;;;;;;7.93;30.36;100409.34;107109;1260;59829;-38
2024/03/11 10:55:53;;;;;;;6.70;3.50;;;;;;;8.21;29.68;100403.96;106998;1260;59516;-39
2024/03/11 10:58:28;;;;;;;13.20;3.70;;;;;;;8.44;29.72;100404.29;107185;1261;71649;-38
2024/03/11 11:01:00;;;;;;;11.00;3.80;;;;;;;8.66;29.74;100401.85;107309;1257;67911;-38
2024/03/11 11:03:30;;;;;;;8.50;3.80;;;;;;;8.93;28.58;100394.65;107299;1257;71486;-39
2024/03/11 11:06:09;;;;;;;8.30;3.60;;;;;;;9.09;28.59;100392.56;107263;1257;59603;-39
2024/03/11 11:08:37;;;;;;;10.30;4.00;;;;;;;9.28;27.98;100395.06;107267;1257;59423;-38
2024/03/11 11:11:05;;;;;;;8.40;3.30;;;;;;;9.39;28.05;100392.20;107238;1257;72312;-39
2024/03/11 11:13:34;;;;;;;7.00;3.80;;;;;;;9.41;27.48;100387.41;107046;1257;68459;-39
2024/03/11 11:16:07;;;;;;;8.70;3.80;;;;;;;9.40;27.89;100384.52;107251;1257;71898;-39
2024/03/11 11:18:38;;;;;;;6.40;3.30;;;;;;;9.49;27.53;100388.66;107230;1257;61474;-38
2024/03/11 11:21:10;;;;;;;5.60;3.70;;;;;;;9.49;27.34;100386.64;107183;1257;59354;-39
2024/03/11 11:23:40;;;;;;;5.90;3.20;;;;;;;9.34;26.88;100380.48;107105;1257;71918;-39
2024/03/11 11:26:10;;;;;;;;;;;;;;;9.21;27.18;100389.52;106453;1257;1003663;-39
2024/03/11 11:28:38;;;;;;;6.00;3.50;;;;;;;9.18;27.04;100392.27;107178;1257;71505;-39